createdAt,value
2023-01-12T00:02:07.545Z,26.94
2023-01-12T00:04:34.716Z,27.02
2023-01-12T00:07:04.265Z,26.82
2023-01-12T00:09:31.027Z,26.91
2023-01-12T00:11:57.928Z,26.97
2023-01-12T00:14:24.802Z,26.91
2023-01-12T00:16:51.663Z,27.00
2023-01-12T00:19:18.555Z,27.06
2023-01-12T00:22:04.062Z,26.98
2023-01-12T00:24:30.956Z,27.09
2023-01-12T00:26:57.758Z,27.02
2023-01-12T00:29:24.511Z,26.80
2023-01-12T00:31:51.399Z,26.44
2023-01-12T00:34:18.197Z,26.55
2023-01-12T00:36:44.942Z,26.51
2023-01-12T00:39:11.780Z,26.41
2023-01-12T00:41:57.016Z,26.54
2023-01-12T00:44:42.329Z,26.90
2023-01-12T00:47:09.078Z,26.79
2023-01-12T00:49:35.880Z,26.77
2023-01-12T00:52:02.631Z,26.52
2023-01-12T00:54:29.366Z,26.59
2023-01-12T00:56:57.092Z,26.76
2023-01-12T00:59:23.899Z,26.77
2023-01-12T01:01:50.715Z,26.88
2023-01-12T01:04:17.535Z,26.45
2023-01-12T01:06:44.338Z,26.89
2023-01-12T01:09:11.114Z,26.60
2023-01-12T01:11:37.896Z,26.91
2023-01-12T01:14:04.786Z,26.60
2023-01-12T01:16:31.651Z,26.89
2023-01-12T01:18:58.390Z,26.71
2023-01-12T01:21:25.143Z,26.84
2023-01-12T01:23:51.902Z,26.82
2023-01-12T01:26:18.633Z,26.83
2023-01-12T01:28:45.414Z,26.78
2023-01-12T01:31:12.223Z,26.83
2023-01-12T01:33:38.966Z,26.53
2023-01-12T01:36:05.721Z,26.90
2023-01-12T01:38:32.446Z,26.85
2023-01-12T01:40:59.187Z,26.38
2023-01-12T01:43:25.936Z,26.85
2023-01-12T01:45:52.667Z,26.73
2023-01-12T01:48:19.418Z,26.73
2023-01-12T01:50:48.312Z,26.43
2023-01-12T01:53:15.074Z,26.37
2023-01-12T01:55:42.106Z,26.85
2023-01-12T01:58:09.211Z,26.48
2023-01-12T02:00:35.948Z,26.88
2023-01-12T02:03:02.697Z,26.69
2023-01-12T02:05:29.488Z,26.74
2023-01-12T02:07:56.214Z,26.73
2023-01-12T02:10:22.993Z,26.73
2023-01-12T02:13:08.481Z,26.75
2023-01-12T02:15:53.791Z,26.84
2023-01-12T02:18:20.676Z,26.43
2023-01-12T02:20:48.392Z,26.68
2023-01-12T02:23:15.129Z,26.41
2023-01-12T02:25:41.869Z,26.42
2023-01-12T02:28:08.588Z,26.38
2023-01-12T02:30:35.335Z,26.40
2023-01-12T02:33:02.139Z,26.74
2023-01-12T02:35:28.905Z,26.76
2023-01-12T02:37:55.635Z,26.42
2023-01-12T02:40:22.406Z,26.45
2023-01-12T02:42:54.261Z,26.43
2023-01-12T02:45:21.054Z,26.40
2023-01-12T02:47:47.819Z,26.36
2023-01-12T02:50:14.547Z,26.52
2023-01-12T02:52:41.407Z,26.68
2023-01-12T02:55:08.214Z,26.61
2023-01-12T02:57:35.429Z,26.44
2023-01-12T03:00:02.226Z,26.73
2023-01-12T03:02:29.115Z,26.26
2023-01-12T03:04:55.881Z,26.69
2023-01-12T03:07:22.653Z,26.67
2023-01-12T03:09:49.414Z,26.63
2023-01-12T03:12:16.136Z,26.68
2023-01-12T03:14:42.889Z,26.49
2023-01-12T03:17:09.642Z,26.62
2023-01-12T03:19:36.373Z,26.31
2023-01-12T03:22:03.189Z,26.68
2023-01-12T03:24:29.941Z,26.72
2023-01-12T03:26:56.669Z,26.19
2023-01-12T03:29:23.407Z,26.61
2023-01-12T03:31:50.142Z,26.42
2023-01-12T03:34:16.875Z,26.63
2023-01-12T03:36:43.666Z,26.44
2023-01-12T03:39:10.418Z,26.63
2023-01-12T03:41:37.218Z,26.51
2023-01-12T03:44:03.993Z,26.26
2023-01-12T03:46:30.781Z,26.25
2023-01-12T03:48:57.542Z,26.48
2023-01-12T03:51:24.304Z,26.21
2023-01-12T03:53:51.129Z,26.12
2023-01-12T03:56:17.941Z,26.13
2023-01-12T03:58:44.684Z,26.43
2023-01-12T04:01:11.537Z,26.38
2023-01-12T04:03:38.378Z,26.59
2023-01-12T04:06:05.174Z,26.60
2023-01-12T04:08:31.917Z,26.65
2023-01-12T04:10:58.728Z,26.49
2023-01-12T04:13:25.561Z,26.60
2023-01-12T04:15:52.313Z,26.16
2023-01-12T04:18:19.058Z,26.53
2023-01-12T04:20:45.793Z,26.31
2023-01-12T04:23:12.535Z,26.69
2023-01-12T04:25:39.439Z,26.40
2023-01-12T04:28:06.911Z,26.59
2023-01-12T04:30:33.677Z,26.49
2023-01-12T04:33:00.453Z,26.18
2023-01-12T04:35:27.569Z,26.31
2023-01-12T04:37:54.311Z,26.37
2023-01-12T04:40:21.052Z,26.20
2023-01-12T04:43:07.918Z,26.41
2023-01-12T04:45:35.258Z,26.39
2023-01-12T04:48:02.676Z,26.46
2023-01-12T04:50:29.482Z,26.38
2023-01-12T04:52:56.246Z,26.30
2023-01-12T04:55:22.988Z,26.32
2023-01-12T04:57:49.771Z,26.20
2023-01-12T05:00:16.505Z,26.37
2023-01-12T05:02:43.247Z,26.49
2023-01-12T05:05:10.042Z,26.24
2023-01-12T05:07:36.871Z,26.09
2023-01-12T05:10:22.263Z,26.34
2023-01-12T05:12:49.006Z,26.20
2023-01-12T05:15:15.751Z,26.04
2023-01-12T05:17:42.504Z,26.45
2023-01-12T05:20:09.357Z,26.03
2023-01-12T05:22:36.142Z,26.15
2023-01-12T05:25:02.900Z,26.42
2023-01-12T05:27:29.656Z,25.91
2023-01-12T05:29:59.402Z,26.30
2023-01-12T05:32:26.209Z,26.12
2023-01-12T05:34:53.097Z,26.33
2023-01-12T05:37:19.860Z,26.43
2023-01-12T05:39:46.681Z,26.37
2023-01-12T05:42:51.877Z,26.37
2023-01-12T05:45:18.671Z,26.34
2023-01-12T05:47:45.497Z,25.95
2023-01-12T05:50:12.360Z,26.41
2023-01-12T05:52:39.260Z,25.74
2023-01-12T05:55:05.992Z,26.25
2023-01-12T05:57:32.753Z,26.37
2023-01-12T05:59:59.502Z,25.96
2023-01-12T06:02:26.382Z,25.83
2023-01-12T06:04:53.305Z,25.95
2023-01-12T06:07:20.129Z,26.18
2023-01-12T06:09:46.903Z,25.95
2023-01-12T06:12:32.075Z,26.17
2023-01-12T06:14:58.886Z,26.06
2023-01-12T06:17:25.650Z,25.81
2023-01-12T06:19:53.238Z,25.96
2023-01-12T06:22:20.019Z,26.37
2023-01-12T06:24:48.993Z,26.28
2023-01-12T06:27:16.362Z,26.21
2023-01-12T06:29:43.125Z,26.15
2023-01-12T06:32:09.907Z,25.94
2023-01-12T06:34:36.656Z,25.88
2023-01-12T06:37:03.510Z,26.22
2023-01-12T06:39:30.247Z,26.02
2023-01-12T06:42:15.585Z,26.29
2023-01-12T06:44:42.329Z,25.99
2023-01-12T06:47:09.113Z,26.27
2023-01-12T06:49:35.926Z,25.94
2023-01-12T06:52:02.686Z,26.33
2023-01-12T06:54:30.771Z,26.15
2023-01-12T06:56:57.567Z,26.15
2023-01-12T06:59:24.314Z,26.18
2023-01-12T07:01:51.206Z,26.16
2023-01-12T07:04:18.113Z,26.18
2023-01-12T07:06:45.096Z,26.10
2023-01-12T07:09:11.856Z,26.24
2023-01-12T07:11:38.630Z,26.15
2023-01-12T07:14:07.212Z,26.21
2023-01-12T07:16:35.169Z,25.96
2023-01-12T07:19:02.134Z,26.25
2023-01-12T07:21:28.875Z,26.34
2023-01-12T07:23:55.620Z,26.06
2023-01-12T07:26:22.569Z,26.26
2023-01-12T07:28:49.364Z,26.12
2023-01-12T07:31:16.251Z,26.01
2023-01-12T07:33:43.015Z,25.83
2023-01-12T07:36:09.769Z,25.84
2023-01-12T07:38:37.788Z,26.17
2023-01-12T07:41:04.650Z,26.22
2023-01-12T07:43:33.300Z,26.26
2023-01-12T07:46:00.107Z,26.05
2023-01-12T07:48:27.304Z,26.28
2023-01-12T07:50:54.106Z,25.82
2023-01-12T07:53:20.883Z,25.84
2023-01-12T07:55:47.679Z,26.30
2023-01-12T07:58:14.478Z,25.97
2023-01-12T08:00:41.736Z,26.04
2023-01-12T08:03:08.572Z,25.84
2023-01-12T08:05:35.493Z,25.94
2023-01-12T08:08:03.611Z,25.92
2023-01-12T08:10:30.548Z,26.30
2023-01-12T08:12:57.278Z,25.90
2023-01-12T08:15:24.016Z,26.20
2023-01-12T08:17:50.784Z,25.88
2023-01-12T08:20:17.634Z,26.10
2023-01-12T08:22:44.423Z,26.16
2023-01-12T08:25:11.168Z,25.99
2023-01-12T08:27:37.943Z,25.96
2023-01-12T08:30:08.152Z,26.06
2023-01-12T08:32:35.451Z,25.78
2023-01-12T08:35:02.318Z,25.91
2023-01-12T08:37:29.165Z,25.96
2023-01-12T08:39:55.958Z,26.15
2023-01-12T08:42:26.394Z,26.25
2023-01-12T08:44:54.070Z,26.31
2023-01-12T08:47:20.868Z,26.12
2023-01-12T08:49:47.654Z,26.23
2023-01-12T08:52:14.478Z,26.13
2023-01-12T08:54:41.363Z,26.02
2023-01-12T08:57:08.151Z,25.84
2023-01-12T08:59:34.999Z,25.93
2023-01-12T09:02:02.315Z,26.12
2023-01-12T09:04:29.127Z,26.12
2023-01-12T09:06:56.012Z,26.20
2023-01-12T09:09:22.883Z,25.93
2023-01-12T09:11:50.627Z,26.18
2023-01-12T09:14:17.353Z,25.97
2023-01-12T09:16:44.129Z,26.09
2023-01-12T09:19:10.970Z,26.01
2023-01-12T09:21:38.077Z,26.25
2023-01-12T09:24:04.840Z,26.13
2023-01-12T09:26:32.143Z,25.76
2023-01-12T09:28:59.212Z,26.27
2023-01-12T09:31:26.146Z,26.02
2023-01-12T09:33:54.175Z,25.94
2023-01-12T09:36:20.924Z,26.19
2023-01-12T09:38:47.696Z,26.19
2023-01-12T09:41:14.451Z,25.95
2023-01-12T09:43:59.845Z,26.05
2023-01-12T09:46:45.109Z,26.07
2023-01-12T09:49:12.236Z,26.16
2023-01-12T09:51:38.982Z,25.98
2023-01-12T09:54:05.976Z,26.22
2023-01-12T09:56:32.794Z,26.24
2023-01-12T09:58:59.562Z,26.19
2023-01-12T10:01:29.616Z,26.20
2023-01-12T10:03:56.892Z,26.12
2023-01-12T10:06:23.636Z,26.23
2023-01-12T10:08:50.377Z,26.30
2023-01-12T10:11:17.242Z,26.00
2023-01-12T10:13:43.981Z,25.93
2023-01-12T10:16:10.768Z,25.92
2023-01-12T10:18:37.544Z,26.20
2023-01-12T10:21:04.303Z,26.38
2023-01-12T10:23:31.051Z,26.33
2023-01-12T10:25:58.987Z,25.97
2023-01-12T10:28:25.737Z,26.23
2023-01-12T10:30:54.102Z,26.10
2023-01-12T10:33:22.874Z,26.09
2023-01-12T10:35:49.897Z,25.86
2023-01-12T10:38:17.637Z,26.17
2023-01-12T10:40:44.388Z,26.07
2023-01-12T10:43:20.802Z,26.24
2023-01-12T10:45:47.697Z,26.12
2023-01-12T10:48:14.469Z,26.24
2023-01-12T10:50:42.450Z,26.13
2023-01-12T10:53:09.223Z,26.35
2023-01-12T10:55:35.988Z,26.31
2023-01-12T10:58:02.719Z,26.34
2023-01-12T11:00:29.766Z,26.12
2023-01-12T11:02:56.657Z,26.32
2023-01-12T11:05:23.471Z,26.22
2023-01-12T11:07:50.333Z,26.29
2023-01-12T11:10:19.418Z,26.50
2023-01-12T11:12:46.767Z,26.12
2023-01-12T11:15:13.537Z,26.43
2023-01-12T11:17:44.977Z,26.36
2023-01-12T11:20:11.713Z,26.17
2023-01-12T11:22:38.454Z,26.33
2023-01-12T11:25:05.216Z,26.48
2023-01-12T11:27:31.959Z,26.17
2023-01-12T11:29:59.146Z,26.38
2023-01-12T11:32:25.906Z,26.31
2023-01-12T11:34:52.675Z,26.60
2023-01-12T11:37:19.418Z,26.25
2023-01-12T11:39:47.102Z,26.45
2023-01-12T11:42:32.701Z,26.36
2023-01-12T11:45:00.991Z,26.11
2023-01-12T11:47:27.732Z,26.50
2023-01-12T11:49:54.480Z,26.59
2023-01-12T11:52:21.235Z,26.53
2023-01-12T11:54:47.978Z,26.32
2023-01-12T11:57:14.739Z,26.51
2023-01-12T11:59:41.779Z,26.48
2023-01-12T12:02:08.587Z,26.50
2023-01-12T12:04:35.344Z,26.27
2023-01-12T12:07:02.092Z,26.48
2023-01-12T12:09:28.883Z,26.02
2023-01-12T12:11:55.757Z,26.55
2023-01-12T12:14:23.436Z,26.45
2023-01-12T12:16:50.187Z,26.20
2023-01-12T12:19:16.980Z,26.59
2023-01-12T12:21:43.774Z,26.31
2023-01-12T12:24:10.567Z,26.20
2023-01-12T12:26:37.383Z,26.32
2023-01-12T12:29:04.120Z,26.30
2023-01-12T12:31:30.856Z,26.17
2023-01-12T12:33:57.591Z,26.29
2023-01-12T12:36:24.325Z,26.43
2023-01-12T12:38:51.109Z,26.34
2023-01-12T12:41:36.527Z,26.24
2023-01-12T12:44:35.601Z,26.50
2023-01-12T12:47:02.361Z,26.45
2023-01-12T12:49:29.179Z,26.42
2023-01-12T12:51:55.942Z,26.18
2023-01-12T12:54:22.682Z,25.97
2023-01-12T12:56:49.453Z,26.18
2023-01-12T12:59:16.182Z,26.05
2023-01-12T13:01:43.533Z,26.50
2023-01-12T13:04:10.775Z,26.25
2023-01-12T13:06:37.510Z,26.31
2023-01-12T13:09:05.501Z,26.51
2023-01-12T13:11:32.247Z,26.24
2023-01-12T13:13:59.052Z,26.30
2023-01-12T13:16:25.786Z,26.34
2023-01-12T13:18:52.532Z,26.17
2023-01-12T13:21:19.260Z,26.21
2023-01-12T13:23:46.108Z,26.50
2023-01-12T13:26:12.868Z,26.49
2023-01-12T13:28:39.652Z,26.35
2023-01-12T13:31:06.467Z,26.31
2023-01-12T13:33:35.512Z,26.30
2023-01-12T13:36:02.279Z,26.29
2023-01-12T13:38:29.121Z,26.54
2023-01-12T13:40:56.499Z,26.12
2023-01-12T13:43:23.628Z,26.09
2023-01-12T13:45:50.684Z,26.56
2023-01-12T13:48:18.905Z,26.43
2023-01-12T13:50:45.867Z,26.59
2023-01-12T13:53:12.617Z,26.15
2023-01-12T13:55:39.411Z,26.39
2023-01-12T13:58:06.170Z,26.62
2023-01-12T14:00:33.929Z,26.54
2023-01-12T14:03:00.778Z,26.39
2023-01-12T14:05:27.528Z,26.09
2023-01-12T14:07:54.332Z,26.50
2023-01-12T14:10:21.071Z,26.25
2023-01-12T14:12:47.817Z,26.62
2023-01-12T14:15:49.969Z,26.54
2023-01-12T14:18:16.778Z,26.49
2023-01-12T14:20:43.563Z,26.63
2023-01-12T14:23:10.318Z,26.68
2023-01-12T14:25:37.052Z,26.68
2023-01-12T14:28:03.809Z,26.69
2023-01-12T14:30:30.662Z,26.79
2023-01-12T14:32:57.396Z,26.55
2023-01-12T14:35:24.172Z,26.57
2023-01-12T14:37:50.940Z,26.31
2023-01-12T14:40:17.702Z,26.40
2023-01-12T14:43:03.288Z,26.50
2023-01-12T14:45:48.430Z,26.28
2023-01-12T14:48:15.183Z,26.56
2023-01-12T14:50:41.917Z,26.54
2023-01-12T14:53:08.650Z,26.41
2023-01-12T14:55:35.412Z,26.62
2023-01-12T14:58:04.785Z,26.42
2023-01-12T15:00:31.612Z,26.69
2023-01-12T15:02:58.603Z,26.69
2023-01-12T15:05:25.481Z,26.62
2023-01-12T15:07:52.345Z,26.67
2023-01-12T15:10:19.224Z,26.48
2023-01-12T15:12:47.059Z,26.76
2023-01-12T15:15:13.798Z,26.63
2023-01-12T15:17:59.463Z,26.69
2023-01-12T15:20:49.468Z,26.44
2023-01-12T15:23:34.765Z,26.62
2023-01-12T15:26:01.547Z,26.82
2023-01-12T15:28:30.061Z,26.64
2023-01-12T15:30:56.813Z,26.53
2023-01-12T15:33:23.557Z,26.79
2023-01-12T15:35:50.367Z,26.82
2023-01-12T15:38:17.978Z,26.60
2023-01-12T15:40:46.420Z,26.88
2023-01-12T15:43:13.158Z,26.62
2023-01-12T15:45:39.947Z,26.46
2023-01-12T15:48:06.831Z,26.94
2023-01-12T15:50:33.790Z,26.80
2023-01-12T15:53:00.580Z,26.61
2023-01-12T15:55:27.383Z,26.80
2023-01-12T15:57:54.116Z,26.83
2023-01-12T16:00:20.948Z,26.85
2023-01-12T16:02:48.612Z,26.87
2023-01-12T16:05:15.373Z,26.61
2023-01-12T16:07:42.135Z,26.90
2023-01-12T16:10:08.903Z,26.63
2023-01-12T16:12:36.879Z,26.53
2023-01-12T16:15:03.623Z,26.71
2023-01-12T16:17:30.394Z,26.58
2023-01-12T16:19:57.124Z,27.06
2023-01-12T16:22:26.156Z,26.63
2023-01-12T16:24:53.015Z,26.77
2023-01-12T16:27:19.791Z,26.60
2023-01-12T16:29:46.563Z,26.74
2023-01-12T16:32:13.430Z,26.79
2023-01-12T16:34:40.315Z,26.66
2023-01-12T16:37:07.146Z,26.63
2023-01-12T16:39:33.876Z,26.89
2023-01-12T16:42:03.472Z,26.85
2023-01-12T16:44:30.394Z,26.82
2023-01-12T16:46:57.133Z,26.97
2023-01-12T16:49:23.867Z,27.12
2023-01-12T16:51:50.617Z,27.02
2023-01-12T16:54:18.727Z,26.82
2023-01-12T16:56:45.486Z,26.69
2023-01-12T16:59:12.239Z,27.06
2023-01-12T17:01:39.256Z,26.85
2023-01-12T17:04:06.144Z,26.83
2023-01-12T17:06:33.054Z,26.87
2023-01-12T17:08:59.954Z,26.91
2023-01-12T17:11:27.500Z,27.02
2023-01-12T17:13:54.832Z,26.91
2023-01-12T17:16:21.963Z,26.92
2023-01-12T17:18:52.453Z,27.02
2023-01-12T17:21:19.338Z,27.02
2023-01-12T17:23:46.287Z,26.68
2023-01-12T17:26:13.156Z,27.04
2023-01-12T17:28:39.963Z,26.95
2023-01-12T17:31:06.916Z,27.11
2023-01-12T17:33:34.388Z,27.02
2023-01-12T17:36:01.150Z,27.01
2023-01-12T17:38:27.940Z,27.13
2023-01-12T17:40:54.798Z,26.77
2023-01-12T17:43:21.627Z,27.06
2023-01-12T17:45:48.493Z,26.99
2023-01-12T17:48:19.014Z,26.69
2023-01-12T17:50:46.012Z,26.92
2023-01-12T17:53:12.896Z,26.61
2023-01-12T17:55:47.578Z,26.83
2023-01-12T17:58:17.317Z,26.77
2023-01-12T18:00:44.217Z,27.15
2023-01-12T18:03:11.071Z,27.06
2023-01-12T18:05:38.508Z,27.10
2023-01-12T18:08:05.284Z,26.72
2023-01-12T18:10:32.134Z,27.08
2023-01-12T18:12:58.979Z,27.13
2023-01-12T18:15:25.776Z,27.24
2023-01-12T18:17:52.606Z,26.65
2023-01-12T18:20:19.358Z,26.90
2023-01-12T18:22:46.096Z,26.60
2023-01-12T18:25:12.928Z,26.88
2023-01-12T18:27:39.689Z,26.83
2023-01-12T18:30:06.482Z,27.05
2023-01-12T18:32:33.214Z,26.81
2023-01-12T18:35:00.360Z,27.04
2023-01-12T18:37:27.135Z,26.81
2023-01-12T18:39:53.904Z,26.79
2023-01-12T18:42:39.453Z,27.07
2023-01-12T18:45:06.253Z,27.12
2023-01-12T18:47:51.636Z,26.80
2023-01-12T18:50:47.254Z,26.81
2023-01-12T18:53:29.870Z,27.22
2023-01-12T18:56:01.536Z,26.99
2023-01-12T18:58:28.554Z,26.89
2023-01-12T19:00:56.747Z,27.19
2023-01-12T19:03:23.626Z,26.72
2023-01-12T19:05:59.336Z,27.04
2023-01-12T19:08:29.139Z,27.13
2023-01-12T19:10:55.921Z,26.78
2023-01-12T19:13:41.252Z,27.03
2023-01-12T19:16:26.535Z,26.97
2023-01-12T19:18:53.296Z,27.18
2023-01-12T19:21:38.817Z,26.67
2023-01-12T19:24:24.255Z,27.10
2023-01-12T19:27:09.640Z,26.69
2023-01-12T19:29:37.803Z,26.86
2023-01-12T19:32:05.541Z,27.11
2023-01-12T19:34:32.279Z,26.93
2023-01-12T19:36:59.038Z,27.13
2023-01-12T19:39:46.334Z,26.96
2023-01-12T19:42:31.927Z,26.91
2023-01-12T19:44:58.673Z,27.20
2023-01-12T19:47:25.404Z,27.23
2023-01-12T19:49:52.213Z,27.21
2023-01-12T19:52:18.941Z,27.16
2023-01-12T19:54:46.364Z,27.22
2023-01-12T19:57:13.128Z,26.89
2023-01-12T19:59:39.871Z,27.09
2023-01-12T20:02:06.653Z,27.06
2023-01-12T20:04:34.258Z,27.13
2023-01-12T20:07:01.031Z,27.06
2023-01-12T20:09:27.800Z,27.08
2023-01-12T20:11:55.132Z,26.95
2023-01-12T20:14:22.061Z,26.83
2023-01-12T20:16:48.824Z,26.86
2023-01-12T20:19:18.896Z,26.98
2023-01-12T20:21:45.638Z,26.98
2023-01-12T20:24:12.650Z,26.81
2023-01-12T20:26:40.369Z,26.77
2023-01-12T20:29:07.107Z,26.84
2023-01-12T20:31:34.030Z,26.76
2023-01-12T20:34:00.888Z,27.13
2023-01-12T20:36:27.629Z,26.82
2023-01-12T20:38:54.393Z,26.75
2023-01-12T20:41:22.355Z,27.11
2023-01-12T20:43:49.132Z,26.90
2023-01-12T20:46:15.915Z,26.79
2023-01-12T20:48:42.665Z,27.08
2023-01-12T20:51:09.436Z,26.97
2023-01-12T20:53:36.204Z,27.23
2023-01-12T20:56:02.958Z,26.96
2023-01-12T20:58:29.706Z,26.86
2023-01-12T21:00:56.577Z,27.19
2023-01-12T21:03:23.407Z,26.87
2023-01-12T21:05:50.223Z,27.11
2023-01-12T21:08:17.001Z,26.89
2023-01-12T21:10:43.779Z,27.40
2023-01-12T21:13:10.542Z,26.81
2023-01-12T21:15:37.312Z,26.63
2023-01-12T21:18:04.139Z,26.95
2023-01-12T21:20:30.883Z,26.97
2023-01-12T21:22:57.903Z,27.21
2023-01-12T21:25:27.858Z,26.88
2023-01-12T21:27:54.602Z,27.06
2023-01-12T21:30:21.347Z,27.18
2023-01-12T21:32:48.596Z,26.78
2023-01-12T21:35:15.422Z,26.87
2023-01-12T21:37:42.150Z,26.66
2023-01-12T21:40:08.914Z,27.17
2023-01-12T21:42:54.509Z,26.87
2023-01-12T21:45:23.706Z,26.96
2023-01-12T21:47:50.461Z,27.07
2023-01-12T21:50:17.203Z,27.13
2023-01-12T21:52:44.834Z,26.89
2023-01-12T21:55:13.354Z,27.05
2023-01-12T21:57:40.147Z,27.02
2023-01-12T22:00:06.906Z,27.05
2023-01-12T22:02:34.272Z,27.09
2023-01-12T22:05:01.074Z,27.03
2023-01-12T22:07:27.916Z,26.81
2023-01-12T22:09:54.949Z,27.14
2023-01-12T22:12:21.683Z,26.79
2023-01-12T22:14:48.437Z,27.20
2023-01-12T22:17:15.178Z,27.19
2023-01-12T22:19:41.931Z,27.09
2023-01-12T22:22:08.734Z,26.99
2023-01-12T22:24:35.488Z,26.82
2023-01-12T22:27:03.300Z,26.88
2023-01-12T22:29:30.070Z,27.05
2023-01-12T22:31:56.838Z,27.19
2023-01-12T22:34:24.848Z,26.90
2023-01-12T22:36:51.620Z,26.92
2023-01-12T22:39:18.364Z,27.18
2023-01-12T22:41:45.093Z,27.09
2023-01-12T22:44:11.929Z,26.97
2023-01-12T22:46:38.651Z,26.84
2023-01-12T22:49:05.387Z,27.07
2023-01-12T22:51:32.282Z,27.14
2023-01-12T22:53:59.163Z,26.92
2023-01-12T22:56:25.977Z,27.12
2023-01-12T22:58:52.795Z,27.09
2023-01-12T23:01:19.635Z,27.24
2023-01-12T23:03:47.670Z,27.13
2023-01-12T23:06:14.431Z,26.84
2023-01-12T23:08:41.203Z,27.04
2023-01-12T23:11:07.980Z,27.25
2023-01-12T23:13:34.758Z,26.87
2023-01-12T23:16:01.626Z,27.15
2023-01-12T23:18:29.116Z,27.16
2023-01-12T23:20:55.937Z,26.87
2023-01-12T23:23:22.758Z,26.91
2023-01-12T23:25:49.499Z,26.86
2023-01-12T23:28:16.757Z,27.22
2023-01-12T23:30:43.593Z,27.28
2023-01-12T23:33:10.381Z,26.80
2023-01-12T23:35:37.149Z,27.03
2023-01-12T23:38:03.970Z,27.31
2023-01-12T23:40:30.751Z,26.88
2023-01-12T23:42:57.520Z,27.00
2023-01-12T23:45:24.335Z,27.14
2023-01-12T23:47:51.470Z,27.12
2023-01-12T23:50:18.231Z,27.36
2023-01-12T23:52:44.987Z,27.03
2023-01-12T23:55:11.717Z,26.85
2023-01-12T23:57:38.502Z,27.24
